createdAt,value
2018-12-23T00:02:33.913Z,2.97
2018-12-23T00:05:37.852Z,2.97
2018-12-23T00:08:41.924Z,2.94
2018-12-23T00:11:45.863Z,2.95
2018-12-23T00:14:49.969Z,2.94
2018-12-23T00:17:53.907Z,2.93
2018-12-23T00:20:59.452Z,2.92
2018-12-23T00:24:03.527Z,2.91
2018-12-23T00:27:07.656Z,2.91
2018-12-23T00:30:11.618Z,2.92
2018-12-23T00:33:15.685Z,2.92
2018-12-23T00:36:19.628Z,2.92
2018-12-23T00:39:23.660Z,2.91
2018-12-23T00:42:27.600Z,2.91
2018-12-23T00:45:31.736Z,2.89
2018-12-23T00:48:35.680Z,2.87
2018-12-23T00:51:39.764Z,2.86
2018-12-23T00:54:43.801Z,2.83
2018-12-23T00:57:47.899Z,2.82
2018-12-23T01:00:51.837Z,2.80
2018-12-23T01:03:55.926Z,2.77
2018-12-23T01:06:59.864Z,2.77
2018-12-23T01:10:04.574Z,2.72
2018-12-23T01:13:08.515Z,2.68
2018-12-23T01:16:12.546Z,2.64
2018-12-23T01:19:16.480Z,2.60
2018-12-23T01:22:20.645Z,2.55
2018-12-23T01:25:24.560Z,2.51
2018-12-23T01:28:28.645Z,2.47
2018-12-23T01:31:32.588Z,2.46
2018-12-23T01:34:37.164Z,2.43
2018-12-23T01:37:41.406Z,2.41
2018-12-23T01:40:45.516Z,2.42
2018-12-23T01:43:49.460Z,2.40
2018-12-23T01:46:53.916Z,2.41
2018-12-23T01:49:57.857Z,2.40
2018-12-23T01:53:01.980Z,2.40
2018-12-23T01:56:05.957Z,2.40
2018-12-23T01:59:10.004Z,2.40
2018-12-23T02:02:13.948Z,2.40
2018-12-23T02:05:18.032Z,2.37
2018-12-23T02:08:21.976Z,2.35
2018-12-23T02:11:26.068Z,2.37
2018-12-23T02:14:30.008Z,2.37
2018-12-23T02:17:34.090Z,2.38
2018-12-23T02:20:38.036Z,2.39
2018-12-23T02:23:42.120Z,2.35
2018-12-23T02:26:46.056Z,2.37
2018-12-23T02:29:50.140Z,2.38
2018-12-23T02:32:54.085Z,2.38
2018-12-23T02:35:58.270Z,2.42
2018-12-23T02:39:02.232Z,2.44
2018-12-23T02:42:06.296Z,2.42
2018-12-23T02:45:10.232Z,2.44
2018-12-23T02:48:14.260Z,2.47
2018-12-23T02:51:18.204Z,2.45
2018-12-23T02:54:22.258Z,2.49
2018-12-23T02:57:26.204Z,2.51
2018-12-23T03:00:30.269Z,2.52
2018-12-23T03:03:34.213Z,2.52
2018-12-23T03:06:38.237Z,2.51
2018-12-23T03:09:42.249Z,2.55
2018-12-23T03:12:46.333Z,2.53
2018-12-23T03:15:50.278Z,2.52
2018-12-23T03:18:54.301Z,2.53
2018-12-23T03:21:58.244Z,2.53
2018-12-23T03:25:02.380Z,2.53
2018-12-23T03:28:06.330Z,2.53
2018-12-23T03:31:10.347Z,2.54
2018-12-23T03:34:14.285Z,2.55
2018-12-23T03:37:18.333Z,2.58
2018-12-23T03:40:22.280Z,2.55
2018-12-23T03:43:26.465Z,2.60
2018-12-23T03:46:30.403Z,2.60
2018-12-23T03:49:34.431Z,2.63
2018-12-23T03:52:38.369Z,2.63
2018-12-23T03:55:42.616Z,2.64
2018-12-23T03:58:46.557Z,2.63
2018-12-23T04:01:50.644Z,2.66
2018-12-23T04:04:54.589Z,2.65
2018-12-23T04:07:58.672Z,2.66
2018-12-23T04:11:02.620Z,2.69
2018-12-23T04:14:06.701Z,2.69
2018-12-23T04:17:10.648Z,2.69
2018-12-23T04:20:14.675Z,2.71
2018-12-23T04:23:18.613Z,2.68
2018-12-23T04:26:22.757Z,2.66
2018-12-23T04:29:26.701Z,2.65
2018-12-23T04:32:30.781Z,2.66
2018-12-23T04:35:34.728Z,2.65
2018-12-23T04:38:38.808Z,2.68
2018-12-23T04:41:42.748Z,2.70
2018-12-23T04:44:46.833Z,2.71
2018-12-23T04:47:50.781Z,2.67
2018-12-23T04:50:54.860Z,2.71
2018-12-23T04:53:58.808Z,2.74
2018-12-23T04:57:02.992Z,2.73
2018-12-23T05:00:06.947Z,2.73
2018-12-23T05:03:11.217Z,2.74
2018-12-23T05:06:15.171Z,2.75
2018-12-23T05:09:21.195Z,2.75
2018-12-23T05:12:25.140Z,2.74
2018-12-23T05:15:29.200Z,2.75
2018-12-23T05:18:33.149Z,2.74
2018-12-23T05:21:37.221Z,2.71
2018-12-23T05:24:41.176Z,2.68
2018-12-23T05:27:45.272Z,2.63
2018-12-23T05:30:49.218Z,2.58
2018-12-23T05:33:53.301Z,2.53
2018-12-23T05:36:57.249Z,2.46
2018-12-23T05:40:01.328Z,2.38
2018-12-23T05:43:05.273Z,2.32
2018-12-23T05:46:09.354Z,2.30
2018-12-23T05:49:13.312Z,2.27
2018-12-23T05:52:17.376Z,2.26
2018-12-23T05:55:24.853Z,2.26
2018-12-23T05:58:28.996Z,2.25
2018-12-23T06:01:32.937Z,2.26
2018-12-23T06:04:37.017Z,2.25
2018-12-23T06:07:40.957Z,2.28
2018-12-23T06:10:44.981Z,2.30
2018-12-23T06:13:48.925Z,2.27
2018-12-23T06:16:53.068Z,2.30
2018-12-23T06:19:57.013Z,2.30
2018-12-23T06:23:01.301Z,2.31
2018-12-23T06:26:05.247Z,2.32
2018-12-23T06:29:09.332Z,2.32
2018-12-23T06:32:13.274Z,2.31
2018-12-23T06:35:17.355Z,2.33
2018-12-23T06:38:21.293Z,2.32
2018-12-23T06:41:25.386Z,2.29
2018-12-23T06:44:29.321Z,2.30
2018-12-23T06:47:33.413Z,2.27
2018-12-23T06:50:37.349Z,2.24
2018-12-23T06:53:41.373Z,2.22
2018-12-23T06:56:45.316Z,2.24
2018-12-23T06:59:49.465Z,2.24
2018-12-23T07:02:53.408Z,2.26
2018-12-23T07:05:57.430Z,2.25
2018-12-23T07:09:01.374Z,2.28
2018-12-23T07:12:05.513Z,2.28
2018-12-23T07:15:09.466Z,2.28
2018-12-23T07:18:13.528Z,2.29
2018-12-23T07:21:17.477Z,2.31
2018-12-23T07:24:21.668Z,2.31
2018-12-23T07:27:25.621Z,2.29
2018-12-23T07:30:29.697Z,2.30
2018-12-23T07:33:33.641Z,2.30
2018-12-23T07:36:37.705Z,2.31
2018-12-23T07:39:41.655Z,2.33
2018-12-23T07:42:45.749Z,2.35
2018-12-23T07:45:49.693Z,2.35
2018-12-23T07:48:53.776Z,2.35
2018-12-23T07:51:57.720Z,2.37
2018-12-23T07:55:01.806Z,2.34
2018-12-23T07:58:06.735Z,2.35
2018-12-23T08:01:11.038Z,2.36
2018-12-23T08:04:14.966Z,2.33
2018-12-23T08:07:18.987Z,2.33
2018-12-23T08:10:22.929Z,2.34
2018-12-23T08:13:27.014Z,2.33
2018-12-23T08:16:30.953Z,2.32
2018-12-23T08:19:34.990Z,2.32
2018-12-23T08:22:39.128Z,2.31
2018-12-23T08:25:43.321Z,2.31
2018-12-23T08:28:47.301Z,2.30
2018-12-23T08:31:51.406Z,2.30
2018-12-23T08:34:55.348Z,2.33
2018-12-23T08:37:59.425Z,2.38
2018-12-23T08:41:03.377Z,2.39
2018-12-23T08:44:07.661Z,2.39
2018-12-23T08:47:11.611Z,2.41
2018-12-23T08:50:15.686Z,2.41
2018-12-23T08:53:19.798Z,2.41
2018-12-23T08:56:23.916Z,2.41
2018-12-23T08:59:27.864Z,2.41
2018-12-23T09:02:31.960Z,2.42
2018-12-23T09:05:35.904Z,2.44
2018-12-23T09:08:39.973Z,2.44
2018-12-23T09:11:43.921Z,2.42
2018-12-23T09:14:47.948Z,2.44
2018-12-23T09:17:51.896Z,2.45
2018-12-23T09:20:59.612Z,2.45
2018-12-23T09:24:03.556Z,2.45
2018-12-23T09:27:07.613Z,2.45
2018-12-23T09:30:11.705Z,2.44
2018-12-23T09:33:15.885Z,2.43
2018-12-23T09:36:19.808Z,2.44
2018-12-23T09:39:23.897Z,2.44
2018-12-23T09:42:27.841Z,2.45
2018-12-23T09:45:31.865Z,2.45
2018-12-23T09:48:35.853Z,2.46
2018-12-23T09:51:39.948Z,2.46
2018-12-23T09:54:43.889Z,2.46
2018-12-23T09:57:47.976Z,2.49
2018-12-23T10:00:51.927Z,2.49
2018-12-23T10:03:56.061Z,2.53
2018-12-23T10:07:00.068Z,2.52
2018-12-23T10:10:06.208Z,2.56
2018-12-23T10:13:10.182Z,2.56
2018-12-23T10:16:14.273Z,2.58
2018-12-23T10:19:18.220Z,2.59
2018-12-23T10:22:22.450Z,2.58
2018-12-23T10:25:26.400Z,2.59
2018-12-23T10:28:30.467Z,2.59
2018-12-23T10:31:34.408Z,2.59
2018-12-23T10:34:38.497Z,2.60
2018-12-23T10:37:42.436Z,2.60
2018-12-23T10:40:46.775Z,2.60
2018-12-23T10:43:50.721Z,2.61
2018-12-23T10:46:54.860Z,2.61
2018-12-23T10:49:58.804Z,2.62
2018-12-23T10:53:02.892Z,2.62
2018-12-23T10:56:06.844Z,2.63
2018-12-23T10:59:11.221Z,2.64
2018-12-23T11:02:15.195Z,2.65
2018-12-23T11:05:19.280Z,2.66
2018-12-23T11:08:26.862Z,2.67
2018-12-23T11:11:29.321Z,2.68
2018-12-23T11:14:33.268Z,2.69
2018-12-23T11:17:37.358Z,2.71
2018-12-23T11:20:41.305Z,2.72
2018-12-23T11:23:45.477Z,2.73
2018-12-23T11:26:49.419Z,2.75
2018-12-23T11:29:53.502Z,2.77
2018-12-23T11:32:57.440Z,2.80
2018-12-23T11:36:01.628Z,2.83
2018-12-23T11:39:18.769Z,2.88
2018-12-23T11:42:23.381Z,2.95
2018-12-23T11:45:27.329Z,3.02
2018-12-23T11:48:31.517Z,3.09
2018-12-23T11:51:35.468Z,3.12
2018-12-23T11:54:39.540Z,3.17
2018-12-23T11:57:43.752Z,3.19
2018-12-23T12:00:47.769Z,3.23
2018-12-23T12:03:51.712Z,3.23
2018-12-23T12:06:55.736Z,3.25
2018-12-23T12:09:59.828Z,3.28
2018-12-23T12:13:04.005Z,3.46
2018-12-23T12:16:08.025Z,3.63
2018-12-23T12:19:12.058Z,3.73
2018-12-23T12:22:16.006Z,3.77
2018-12-23T12:25:20.068Z,3.75
2018-12-23T12:28:24.013Z,3.72
2018-12-23T12:31:28.224Z,3.69
2018-12-23T12:34:32.180Z,3.67
2018-12-23T12:37:36.277Z,3.65
2018-12-23T12:40:40.219Z,3.67
2018-12-23T12:43:44.268Z,3.65
2018-12-23T12:46:48.222Z,3.65
2018-12-23T12:49:52.296Z,3.62
2018-12-23T12:52:56.321Z,3.64
2018-12-23T12:56:02.511Z,3.66
2018-12-23T12:59:06.320Z,3.66
2018-12-23T13:02:10.397Z,3.72
2018-12-23T13:05:14.341Z,3.77
2018-12-23T13:08:18.420Z,3.82
2018-12-23T13:11:22.361Z,3.84
2018-12-23T13:14:26.381Z,3.87
2018-12-23T13:17:30.336Z,3.87
2018-12-23T13:20:34.377Z,3.86
2018-12-23T13:23:38.330Z,3.83
2018-12-23T13:26:42.617Z,3.81
2018-12-23T13:29:47.569Z,3.79
2018-12-23T13:32:51.973Z,3.77
2018-12-23T13:35:56.114Z,3.78
2018-12-23T13:39:08.782Z,3.81
2018-12-23T13:42:16.494Z,3.85
2018-12-23T13:49:46.849Z,3.90
2018-12-23T13:53:21.221Z,3.81
2018-12-23T13:56:40.081Z,3.81
2018-12-23T14:00:06.857Z,3.80
2018-12-23T14:03:39.427Z,3.80
2018-12-23T14:07:11.256Z,3.77
2018-12-23T14:10:24.073Z,3.77
2018-12-23T14:13:29.265Z,3.75
2018-12-23T14:16:34.384Z,3.72
2018-12-23T14:19:39.646Z,3.66
2018-12-23T14:22:44.762Z,3.65
2018-12-23T14:25:49.959Z,3.61
2018-12-23T14:28:55.097Z,3.56
2018-12-23T14:32:01.006Z,3.51
2018-12-23T14:35:06.472Z,3.45
2018-12-23T14:38:11.721Z,3.45
2018-12-23T14:41:16.798Z,3.47
2018-12-23T14:44:21.963Z,3.49
2018-12-23T14:47:27.470Z,3.53
2018-12-23T14:50:32.665Z,3.53
2018-12-23T14:53:37.739Z,3.54
2018-12-23T14:56:42.916Z,3.51
2018-12-23T14:59:47.990Z,3.51
2018-12-23T15:02:53.246Z,3.52
2018-12-23T15:05:58.378Z,3.52
2018-12-23T15:09:04.855Z,3.49
2018-12-23T15:12:09.943Z,3.45
2018-12-23T15:15:15.267Z,3.42
2018-12-23T15:18:20.570Z,3.39
2018-12-23T15:21:25.926Z,3.38
2018-12-23T15:24:31.321Z,3.38
2018-12-23T15:27:36.477Z,3.40
2018-12-23T15:30:41.890Z,3.42
2018-12-23T15:33:47.096Z,3.43
2018-12-23T15:36:52.182Z,3.51
2018-12-23T15:39:57.375Z,3.57
2018-12-23T15:43:02.456Z,3.65
2018-12-23T15:46:07.657Z,3.72
2018-12-23T15:49:12.733Z,3.77
2018-12-23T15:52:17.944Z,3.88
2018-12-23T15:55:23.015Z,3.95
2018-12-23T15:58:28.183Z,4.09
2018-12-23T16:01:33.257Z,4.20
2018-12-23T16:04:38.598Z,4.27
2018-12-23T16:07:43.675Z,4.36
2018-12-23T16:10:48.875Z,4.44
2018-12-23T16:13:53.947Z,4.47
2018-12-23T16:16:59.158Z,4.47
2018-12-23T16:20:05.752Z,4.46
2018-12-23T16:23:10.974Z,4.51
2018-12-23T16:26:16.049Z,4.55
2018-12-23T16:29:21.294Z,4.59
2018-12-23T16:32:26.427Z,4.58
2018-12-23T16:35:31.634Z,4.50
2018-12-23T16:38:36.713Z,4.41
2018-12-23T16:41:41.878Z,4.36
2018-12-23T16:44:46.956Z,4.34
2018-12-23T16:47:52.196Z,4.38
2018-12-23T16:50:57.273Z,4.44
2018-12-23T16:54:02.472Z,4.57
2018-12-23T16:57:07.555Z,4.68
2018-12-23T17:00:14.394Z,4.75
2018-12-23T17:03:19.543Z,4.78
2018-12-23T17:06:25.851Z,4.82
2018-12-23T17:09:31.038Z,4.83
2018-12-23T17:12:36.283Z,4.81
2018-12-23T17:15:41.365Z,4.86
2018-12-23T17:18:46.561Z,4.86
2018-12-23T17:21:51.641Z,4.86
2018-12-23T17:24:56.797Z,4.91
2018-12-23T17:28:01.879Z,4.87
2018-12-23T17:31:07.481Z,4.87
2018-12-23T17:34:12.601Z,4.88
2018-12-23T17:37:17.914Z,4.87
2018-12-23T17:40:22.990Z,4.86
2018-12-23T17:43:28.193Z,4.84
2018-12-23T17:46:33.273Z,4.91
2018-12-23T17:49:38.679Z,4.90
2018-12-23T17:52:43.755Z,4.95
2018-12-23T17:55:50.698Z,4.97
2018-12-23T17:58:55.774Z,4.97
2018-12-23T18:02:01.079Z,4.96
2018-12-23T18:05:06.805Z,4.93
2018-12-23T18:08:12.075Z,4.93
2018-12-23T18:11:17.153Z,4.91
2018-12-23T18:14:22.458Z,4.93
2018-12-23T18:17:27.866Z,4.93
2018-12-23T18:20:33.046Z,4.93
2018-12-23T18:23:38.119Z,4.92
2018-12-23T18:26:45.252Z,4.88
2018-12-23T18:29:50.101Z,4.89
2018-12-23T18:32:55.357Z,4.87
2018-12-23T18:36:00.514Z,4.88
2018-12-23T18:39:07.572Z,4.88
2018-12-23T18:42:12.989Z,4.86
2018-12-23T18:45:18.156Z,4.86
2018-12-23T18:48:23.229Z,4.88
2018-12-23T18:51:28.539Z,4.83
2018-12-23T18:54:33.615Z,4.81
2018-12-23T18:57:39.231Z,4.81
2018-12-23T19:00:44.916Z,4.74
2018-12-23T19:03:50.128Z,4.67
2018-12-23T19:06:55.217Z,4.63
2018-12-23T19:10:00.375Z,4.61
2018-12-23T19:13:58.860Z,4.56
2018-12-23T19:17:36.202Z,4.51
2018-12-23T19:21:27.211Z,4.48
2018-12-23T19:24:56.406Z,4.51
2018-12-23T19:28:18.603Z,4.50
2018-12-23T19:31:52.550Z,4.49
2018-12-23T19:35:26.953Z,4.49
2018-12-23T19:38:58.137Z,4.47
2018-12-23T19:42:31.859Z,4.45
2018-12-23T19:46:23.115Z,4.46
2018-12-23T19:49:51.832Z,4.47
2018-12-23T19:53:23.110Z,4.48
2018-12-23T19:56:55.922Z,4.49
2018-12-23T20:00:22.646Z,4.52
2018-12-23T20:04:05.993Z,4.49
2018-12-23T20:07:41.533Z,4.47
2018-12-23T20:11:06.522Z,4.47
2018-12-23T20:14:36.055Z,4.45
2018-12-23T20:17:48.675Z,4.43
2018-12-23T20:21:36.024Z,4.47
2018-12-23T20:25:00.853Z,4.44
2018-12-23T20:28:47.713Z,4.47
2018-12-23T20:32:09.318Z,4.47
2018-12-23T20:35:31.378Z,4.43
2018-12-23T20:39:31.186Z,4.44
2018-12-23T20:42:59.482Z,4.43
2018-12-23T20:46:41.191Z,4.45
2018-12-23T20:49:57.075Z,4.44
2018-12-23T20:53:12.320Z,4.40
2018-12-23T20:56:34.271Z,4.37
2018-12-23T20:59:53.226Z,4.33
2018-12-23T21:03:12.206Z,4.30
2018-12-23T21:06:31.185Z,4.27
2018-12-23T21:10:05.701Z,4.27
2018-12-23T21:13:21.255Z,4.28
2018-12-23T21:16:31.344Z,4.22
2018-12-23T21:19:53.316Z,4.18
2018-12-23T21:23:21.660Z,4.13
2018-12-23T21:26:49.735Z,4.11
2018-12-23T21:30:41.776Z,4.06
2018-12-23T21:34:17.246Z,3.98
2018-12-23T21:37:45.625Z,3.97
2018-12-23T21:41:24.384Z,3.92
2018-12-23T21:44:49.040Z,3.90
2018-12-23T21:48:28.077Z,3.85
2018-12-23T21:52:03.723Z,3.84
2018-12-23T21:55:47.245Z,3.82
2018-12-23T21:59:15.265Z,3.78
2018-12-23T22:02:54.552Z,3.71
2018-12-23T22:06:25.806Z,3.68
2018-12-23T22:09:57.232Z,3.65
2018-12-23T22:13:24.341Z,3.62
2018-12-23T22:16:29.416Z,3.60
2018-12-23T22:19:34.622Z,3.60
2018-12-23T22:22:39.704Z,3.60
2018-12-23T22:25:44.865Z,3.57
2018-12-23T22:28:49.939Z,3.61
2018-12-23T22:31:55.197Z,3.65
2018-12-23T22:35:00.279Z,3.66
2018-12-23T22:38:05.523Z,3.68
2018-12-23T22:41:10.595Z,3.68
2018-12-23T22:44:15.859Z,3.66
2018-12-23T22:47:21.011Z,3.68
2018-12-23T22:50:26.225Z,3.69
2018-12-23T22:53:32.940Z,3.76
2018-12-23T22:56:38.144Z,3.74
2018-12-23T22:59:43.363Z,3.74
2018-12-23T23:02:48.519Z,3.77
2018-12-23T23:05:53.593Z,3.76
2018-12-23T23:08:58.805Z,3.79
2018-12-23T23:12:03.877Z,3.80
2018-12-23T23:15:09.088Z,3.78
2018-12-23T23:18:14.166Z,3.80
2018-12-23T23:21:19.364Z,3.83
2018-12-23T23:24:24.444Z,3.85
2018-12-23T23:27:29.747Z,3.89
2018-12-23T23:30:34.811Z,3.92
2018-12-23T23:33:40.026Z,3.90
2018-12-23T23:36:45.111Z,3.91
2018-12-23T23:39:50.306Z,3.92
2018-12-23T23:42:55.380Z,3.92
2018-12-23T23:46:00.546Z,3.89
2018-12-23T23:49:05.956Z,3.88
2018-12-23T23:52:11.169Z,3.84
2018-12-23T23:55:16.244Z,3.81
2018-12-23T23:58:21.396Z,3.79
